Latest METARs, TAFs and NOTAMs for LHBP


---------------------------------------------------------------------------
	(OBSERVATIONS)
LHBP 031200Z 12009KT 9999 SCT029 27/15 Q1009 RESHRA NOSIG=
LHBP 031141Z 13008KT 100V160 9999 -SHRA FEW028 27/15 Q1009 NOSIG=
LHBP 031130Z 14011KT 100V160 CAVOK 27/14 Q1009 TEMPO 5000 SHRA=
LHBP 031100Z 13009KT 090V170 CAVOK 27/13 Q1009 TEMPO 5000 SHRA=
LHBP 031030Z 13009KT 100V160 CAVOK 28/12 Q1010 NOSIG=
LHBP 031000Z 13010KT 100V170 CAVOK 27/12 Q1010 NOSIG=
LHBP 030930Z 10010KT CAVOK 26/12 Q1010 NOSIG=
---------------------------------------------------------------------------
	(FC)
Sorry, FC For LHBP Not Found
---------------------------------------------------------------------------
	(TERMINAL AREA FORECAST)
LHBP 031115Z 0312/0412 14009KT CAVOK
    BECMG 0313/0315 06007KT
    TEMPO 0315/0406 VRB15G25KT 4000 TSRA SHRA SCT040CB BKN080
    BECMG 0406/0408 VRB03KT=
---------------------------------------------------------------------------
	(NOTAMS)


LHBP A0749/20 VOR APPROACH PROCEDURE FOR RWY 31R IS SUSPENDED.
    04 MAR 14:49 2020 UNTIL PERM. CREATED: 04 MAR 14:50 2020

LHBP A2383/20 TWY V CLSD DUE TO MAINT. 26 JUN 19:10 2020 UNTIL
    15 AUG 22:00 2020. CREATED: 26 JUN 19:12 2020

LHBP A2496/20 TWY Y CLOSED DUE TO MAINT. 02 JUL 13:10 2020 UNTIL
    15 SEP 22:00 2020. CREATED: 02 JUL 13:11 2020

LHBP A2656/20 TWY U CLOSED DUE TO MAINT. 15 JUL 20:20 2020 UNTIL
    15 AUG 22:00 2020. CREATED: 15 JUL 20:20 2020

LHBP A2784/20 TWY A1 CLOSED BETWEEN TWY B1 AND EXIT M20 DUE TO
    LONG-TERM PARKING. 21 JUL 19:33 2020 UNTIL 23 SEP 22:00 2020.
    CREATED: 21 JUL 19:34 2020

LHBP A3010/20 RWY 13R/31L CLOSED DUE TO MAINT. 04 AUG 06:00 2020
    UNTIL 04 AUG 09:00 2020. CREATED: 31 JUL 19:38 2020

LHBP A3011/20 RWY 13L/31R CLOSED DUE TO MAINT. 06 AUG 06:00 2020
    UNTIL 06 AUG 11:00 2020. CREATED: 31 JUL 19:39 2020

LHBP A3012/20 ILS FOR RWY 13L OUT OF SERVICE DUE TO MAINT. 06
    AUG 06:00 2020 UNTIL 06 AUG 07:00 2020. CREATED: 31 JUL 20:27
    2020

LHBP A3013/20 TWY J4 C D CLSD DUE TO MAINT. 04 AUG 06:00 2020
    UNTIL 04 AUG 09:00 2020. CREATED: 31 JUL 20:28 2020

LHBP A3014/20 TWY A9 B5 K Z X CLSD DUE TO MAINT. 06 AUG 06:00
    2020 UNTIL 06 AUG 11:00 2020. CREATED: 31 JUL 20:28 2020

---------------------------------------------------------------------------